createdAt,value
2018-09-11T00:00:42.602Z,14.50
2018-09-11T00:03:14.547Z,16.60
2018-09-11T00:05:45.836Z,15.43
2018-09-11T00:08:17.472Z,15.30
2018-09-11T00:10:48.967Z,15.03
2018-09-11T00:13:21.198Z,16.10
2018-09-11T00:15:52.522Z,16.57
2018-09-11T00:18:24.436Z,15.10
2018-09-11T00:20:55.660Z,14.53
2018-09-11T00:23:27.215Z,14.47
2018-09-11T00:25:58.895Z,12.77
2018-09-11T00:28:31.242Z,13.90
2018-09-11T00:31:02.575Z,15.93
2018-09-11T00:33:34.147Z,14.97
2018-09-11T00:36:05.220Z,16.00
2018-09-11T00:38:37.840Z,16.20
2018-09-11T00:41:09.317Z,16.90
2018-09-11T00:43:41.112Z,17.53
2018-09-11T00:46:12.599Z,17.47
2018-09-11T00:48:44.551Z,18.27
2018-09-11T00:51:15.670Z,17.63
2018-09-11T00:53:47.420Z,17.03
2018-09-11T00:56:18.780Z,19.00
2018-09-11T00:58:50.481Z,19.40
2018-09-11T01:01:21.636Z,19.40
2018-09-11T01:03:53.309Z,19.00
2018-09-11T01:06:24.886Z,19.97
2018-09-11T01:08:56.627Z,18.53
2018-09-11T01:11:28.026Z,17.83
2018-09-11T01:13:59.600Z,18.23
2018-09-11T01:16:31.054Z,18.67
2018-09-11T01:19:03.258Z,19.60
2018-09-11T01:21:34.622Z,18.20
2018-09-11T01:24:06.196Z,20.27
2018-09-11T01:26:37.509Z,17.97
2018-09-11T01:29:09.402Z,17.57
2018-09-11T01:31:40.972Z,17.53
2018-09-11T01:34:12.449Z,18.63
2018-09-11T01:36:44.042Z,15.90
2018-09-11T01:39:16.889Z,15.93
2018-09-11T01:41:48.416Z,16.47
2018-09-11T01:44:20.037Z,14.90
2018-09-11T01:46:51.422Z,16.13
2018-09-11T01:49:23.565Z,14.00
2018-09-11T01:51:54.929Z,17.17
2018-09-11T01:54:26.848Z,16.73
2018-09-11T01:56:58.237Z,15.90
2018-09-11T01:59:30.690Z,14.83
2018-09-11T02:02:02.300Z,15.90
2018-09-11T02:04:33.965Z,15.13
2018-09-11T02:07:05.532Z,13.80
2018-09-11T02:09:37.271Z,14.57
2018-09-11T02:12:08.620Z,15.30
2018-09-11T02:14:40.616Z,13.73
2018-09-11T02:17:12.444Z,13.83
2018-09-11T02:19:44.206Z,13.67
2018-09-11T02:22:15.761Z,14.43
2018-09-11T02:24:47.601Z,14.23
2018-09-11T02:27:19.612Z,13.50
2018-09-11T02:29:51.156Z,14.43
2018-09-11T02:32:22.840Z,13.53
2018-09-11T02:34:54.724Z,12.60
2018-09-11T02:37:26.325Z,12.40
2018-09-11T02:39:58.528Z,12.33
2018-09-11T02:42:30.197Z,14.07
2018-09-11T02:45:02.577Z,12.27
2018-09-11T02:47:33.873Z,12.77
2018-09-11T02:50:06.849Z,10.77
2018-09-11T02:52:39.327Z,13.70
2018-09-11T02:55:13.215Z,10.80
2018-09-11T02:57:44.538Z,12.00
2018-09-11T03:00:17.289Z,10.93
2018-09-11T03:02:48.912Z,11.00
2018-09-11T03:05:20.860Z,12.03
2018-09-11T03:07:52.393Z,11.90
2018-09-11T03:10:24.008Z,12.03
2018-09-11T03:12:55.325Z,10.87
2018-09-11T03:15:27.050Z,11.60
2018-09-11T03:17:58.337Z,12.13
2018-09-11T03:20:29.930Z,11.20
2018-09-11T03:23:03.382Z,10.43
2018-09-11T03:25:34.905Z,10.63
2018-09-11T03:28:06.557Z,11.13
2018-09-11T03:30:38.184Z,11.00
2018-09-11T03:33:09.726Z,11.90
2018-09-11T03:35:41.579Z,9.63
2018-09-11T03:38:12.795Z,9.73
2018-09-11T03:40:45.889Z,11.10
2018-09-11T03:43:17.362Z,10.40
2018-09-11T03:45:49.629Z,10.30
2018-09-11T03:48:21.962Z,11.33
2018-09-11T03:50:53.493Z,10.07
2018-09-11T03:53:24.950Z,9.70
2018-09-11T03:55:56.557Z,10.33
2018-09-11T03:58:27.917Z,10.07
2018-09-11T04:00:59.673Z,10.73
2018-09-11T04:03:31.107Z,8.83
2018-09-11T04:06:02.758Z,8.60
2018-09-11T04:08:33.839Z,9.47
2018-09-11T04:11:05.897Z,9.60
2018-09-11T04:13:36.941Z,11.37
2018-09-11T04:16:08.389Z,9.50
2018-09-11T04:18:39.688Z,10.63
2018-09-11T04:21:11.280Z,10.47
2018-09-11T04:23:42.453Z,9.37
2018-09-11T04:26:14.129Z,10.20
2018-09-11T04:28:45.437Z,9.30
2018-09-11T04:31:17.105Z,10.37
2018-09-11T04:33:48.318Z,9.83
2018-09-11T04:36:20.153Z,11.80
2018-09-11T04:38:51.942Z,11.40
2018-09-11T04:41:24.009Z,12.47
2018-09-11T04:43:55.424Z,11.23
2018-09-11T04:46:27.142Z,11.57
2018-09-11T04:48:59.060Z,11.03
2018-09-11T04:51:31.005Z,11.43
2018-09-11T04:54:02.985Z,11.23
2018-09-11T04:56:34.491Z,11.27
2018-09-11T04:59:05.626Z,11.70
2018-09-11T05:01:36.853Z,10.27
2018-09-11T05:04:08.221Z,11.67
2018-09-11T05:06:39.694Z,12.53
2018-09-11T05:09:12.195Z,12.10
2018-09-11T05:11:43.649Z,11.65
2018-09-11T05:14:15.131Z,10.98
2018-09-11T05:16:47.678Z,11.22
2018-09-11T05:19:19.106Z,15.38
2018-09-11T05:21:51.004Z,12.15
2018-09-11T05:24:22.256Z,11.57
2018-09-11T05:26:54.118Z,11.10
2018-09-11T05:29:26.213Z,12.57
2018-09-11T05:31:57.945Z,12.00
2018-09-11T05:34:29.109Z,11.63
2018-09-11T05:37:00.489Z,11.87
2018-09-11T05:39:31.762Z,12.53
2018-09-11T05:42:03.417Z,10.00
2018-09-11T05:44:34.489Z,10.47
2018-09-11T05:47:06.547Z,9.18
2018-09-11T05:49:37.696Z,10.45
2018-09-11T05:52:09.425Z,9.13
2018-09-11T05:54:41.134Z,9.83
2018-09-11T05:57:13.028Z,10.13
2018-09-11T05:59:44.453Z,9.68
2018-09-11T06:02:16.103Z,8.25
2018-09-11T06:04:47.466Z,9.73
2018-09-11T06:07:19.397Z,7.92
2018-09-11T06:09:50.964Z,8.65
2018-09-11T06:12:22.527Z,9.43
2018-09-11T06:14:53.492Z,8.43
2018-09-11T06:17:24.913Z,8.73
2018-09-11T06:19:56.045Z,8.60
2018-09-11T06:22:27.424Z,8.43
2018-09-11T06:24:58.359Z,9.50
2018-09-11T06:27:29.576Z,8.37
2018-09-11T06:30:00.616Z,8.50
2018-09-11T06:32:32.364Z,9.10
2018-09-11T06:35:03.787Z,8.53
2018-09-11T06:37:35.040Z,9.70
2018-09-11T06:40:07.262Z,9.80
2018-09-11T06:42:40.061Z,9.05
2018-09-11T06:45:11.133Z,9.73
2018-09-11T06:47:42.295Z,8.70
2018-09-11T06:50:13.360Z,9.25
2018-09-11T06:52:46.244Z,10.72
2018-09-11T06:55:17.318Z,9.23
2018-09-11T06:57:48.625Z,9.25
2018-09-11T07:00:19.814Z,8.30
2018-09-11T07:02:51.449Z,8.68
2018-09-11T07:05:22.673Z,8.65
2018-09-11T07:07:54.048Z,10.58
2018-09-11T07:10:25.029Z,8.63
2018-09-11T07:12:56.494Z,7.85
2018-09-11T07:15:27.633Z,9.80
2018-09-11T07:17:59.101Z,8.10
2018-09-11T07:20:30.585Z,8.70
2018-09-11T07:23:02.396Z,8.30
2018-09-11T07:25:33.593Z,8.77
2018-09-11T07:28:05.714Z,8.33
2018-09-11T07:30:36.619Z,8.80
2018-09-11T07:33:08.285Z,8.77
2018-09-11T07:35:39.622Z,8.60
2018-09-11T07:38:11.109Z,8.47
2018-09-11T07:40:42.577Z,7.13
2018-09-11T07:43:15.098Z,8.40
2018-09-11T07:45:46.640Z,8.43
2018-09-11T07:48:18.256Z,7.30
2018-09-11T07:50:49.516Z,8.67
2018-09-11T07:53:21.404Z,7.77
2018-09-11T07:55:52.674Z,7.73
2018-09-11T07:58:24.853Z,8.47
2018-09-11T08:00:56.192Z,8.97
2018-09-11T08:03:27.884Z,9.27
2018-09-11T08:05:59.619Z,9.60
2018-09-11T08:08:31.991Z,9.80
2018-09-11T08:11:03.849Z,9.00
2018-09-11T08:13:35.556Z,8.93
2018-09-11T08:16:07.025Z,8.67
2018-09-11T08:18:38.657Z,8.30
2018-09-11T08:21:10.157Z,8.10
2018-09-11T08:23:41.833Z,8.87
2018-09-11T08:26:13.497Z,8.73
2018-09-11T08:28:45.184Z,7.95
2018-09-11T08:31:16.317Z,8.23
2018-09-11T08:33:48.386Z,9.18
2018-09-11T08:36:20.004Z,10.47
2018-09-11T08:38:51.460Z,8.50
2018-09-11T08:41:22.921Z,8.30
2018-09-11T08:43:55.539Z,9.03
2018-09-11T08:46:26.932Z,8.50
2018-09-11T08:48:58.680Z,8.50
2018-09-11T08:51:30.637Z,9.03
2018-09-11T08:54:02.721Z,8.43
2018-09-11T08:56:34.296Z,9.00
2018-09-11T08:59:06.030Z,8.30
2018-09-11T09:01:37.280Z,9.27
2018-09-11T09:04:08.885Z,9.00
2018-09-11T09:06:40.189Z,8.53
2018-09-11T09:09:12.958Z,8.85
2018-09-11T09:11:44.261Z,9.30
2018-09-11T09:14:16.175Z,8.35
2018-09-11T09:16:47.608Z,7.83
2018-09-11T09:19:19.109Z,7.23
2018-09-11T09:21:51.349Z,7.00
2018-09-11T09:24:22.702Z,7.92
2018-09-11T09:26:53.897Z,7.25
2018-09-11T09:29:25.664Z,10.53
2018-09-11T09:31:56.564Z,7.73
2018-09-11T09:34:27.962Z,8.70
2018-09-11T09:36:59.388Z,8.00
2018-09-11T09:39:30.782Z,8.43
2018-09-11T09:42:02.360Z,9.07
2018-09-11T09:44:34.463Z,9.17
2018-09-11T09:47:05.430Z,7.23
2018-09-11T09:49:36.879Z,7.12
2018-09-11T09:52:07.994Z,8.70
2018-09-11T09:54:39.933Z,7.60
2018-09-11T09:57:11.270Z,7.30
2018-09-11T09:59:42.893Z,8.10
2018-09-11T10:02:18.911Z,8.73
2018-09-11T10:04:50.212Z,7.67
2018-09-11T10:07:22.003Z,8.20
2018-09-11T10:09:54.089Z,9.20
2018-09-11T10:12:25.109Z,10.20
2018-09-11T10:14:56.445Z,7.90
2018-09-11T10:17:27.739Z,8.63
2018-09-11T10:19:59.046Z,8.80
2018-09-11T10:22:30.306Z,8.27
2018-09-11T10:25:02.873Z,9.13
2018-09-11T10:27:33.926Z,8.90
2018-09-11T10:30:06.623Z,8.10
2018-09-11T10:32:37.664Z,11.00
2018-09-11T10:35:09.486Z,9.03
2018-09-11T10:37:40.573Z,9.30
2018-09-11T10:40:11.769Z,8.80
2018-09-11T10:42:43.050Z,9.23
2018-09-11T10:45:14.913Z,10.60
2018-09-11T10:47:46.261Z,9.47
2018-09-11T10:50:17.378Z,9.10
2018-09-11T10:52:48.360Z,9.93
2018-09-11T10:55:19.676Z,9.60
2018-09-11T10:57:50.803Z,9.37
2018-09-11T11:00:22.252Z,9.47
2018-09-11T11:02:53.774Z,9.20
2018-09-11T11:05:25.627Z,8.80
2018-09-11T11:07:56.850Z,11.20
2018-09-11T11:10:28.542Z,11.83
2018-09-11T11:12:59.573Z,10.30
2018-09-11T11:15:30.953Z,9.63
2018-09-11T11:18:02.729Z,9.53
2018-09-11T11:20:34.306Z,9.23
2018-09-11T11:23:05.590Z,9.07
2018-09-11T11:25:37.530Z,10.20
2018-09-11T11:28:08.698Z,11.20
2018-09-11T11:30:40.422Z,9.63
2018-09-11T11:33:11.895Z,9.50
2018-09-11T11:35:43.702Z,11.40
2018-09-11T11:38:15.094Z,10.23
2018-09-11T11:40:47.021Z,9.10
2018-09-11T11:43:18.505Z,8.03
2018-09-11T11:45:53.446Z,8.07
2018-09-11T11:48:24.554Z,10.13
2018-09-11T11:50:57.091Z,9.77
2018-09-11T11:53:28.373Z,10.43
2018-09-11T11:56:00.429Z,9.10
2018-09-11T11:58:31.519Z,9.53
2018-09-11T12:01:03.921Z,10.20
2018-09-11T12:03:35.249Z,10.87
2018-09-11T12:06:07.408Z,10.13
2018-09-11T12:08:38.529Z,10.40
2018-09-11T12:11:10.102Z,10.80
2018-09-11T12:13:41.077Z,9.90
2018-09-11T12:16:12.416Z,10.27
2018-09-11T12:18:43.730Z,9.83
2018-09-11T12:21:15.346Z,9.43
2018-09-11T12:23:46.370Z,11.33
2018-09-11T12:26:18.012Z,11.40
2018-09-11T12:28:49.690Z,10.83
2018-09-11T12:31:21.839Z,11.67
2018-09-11T12:33:53.186Z,11.97
2018-09-11T12:36:24.898Z,12.60
2018-09-11T12:38:56.643Z,12.30
2018-09-11T12:41:27.990Z,12.03
2018-09-11T12:43:59.051Z,11.57
2018-09-11T12:46:30.972Z,12.73
2018-09-11T12:49:02.290Z,10.30
2018-09-11T12:51:33.509Z,11.93
2018-09-11T12:54:06.181Z,13.50
2018-09-11T12:56:37.422Z,13.60
2018-09-11T12:59:08.657Z,11.43
2018-09-11T13:01:40.070Z,11.90
2018-09-11T13:04:11.242Z,11.03
2018-09-11T13:06:44.227Z,11.10
2018-09-11T13:09:15.521Z,11.20
2018-09-11T13:11:46.922Z,11.97
2018-09-11T13:14:18.077Z,11.30
2018-09-11T13:16:49.426Z,11.53
2018-09-11T13:19:20.545Z,11.23
2018-09-11T13:21:53.699Z,11.60
2018-09-11T13:24:24.802Z,10.73
2018-09-11T13:26:55.729Z,10.63
2018-09-11T13:29:26.589Z,11.00
2018-09-11T13:31:57.861Z,10.73
2018-09-11T13:34:28.957Z,10.17
2018-09-11T13:37:00.719Z,10.90
2018-09-11T13:39:31.757Z,11.17
2018-09-11T13:42:04.078Z,9.80
2018-09-11T13:44:35.250Z,11.37
2018-09-11T13:47:09.950Z,10.40
2018-09-11T13:49:41.003Z,9.60
2018-09-11T13:52:12.554Z,11.40
2018-09-11T13:54:43.950Z,11.77
2018-09-11T13:57:15.306Z,11.30
2018-09-11T13:59:46.237Z,10.07
2018-09-11T14:02:17.754Z,13.30
2018-09-11T14:04:48.849Z,10.97
2018-09-11T14:07:20.346Z,11.30
2018-09-11T14:09:51.277Z,10.50
2018-09-11T14:12:22.857Z,10.73
2018-09-11T14:14:53.961Z,10.93
2018-09-11T14:17:25.403Z,9.30
2018-09-11T14:19:56.448Z,10.90
2018-09-11T14:22:28.186Z,12.00
2018-09-11T14:24:59.088Z,12.63
2018-09-11T14:27:30.466Z,11.43
2018-09-11T14:30:01.595Z,10.97
2018-09-11T14:32:33.405Z,12.73
2018-09-11T14:35:05.094Z,11.60
2018-09-11T14:37:36.497Z,10.50
2018-09-11T14:40:07.735Z,13.67
2018-09-11T14:42:47.970Z,11.63
2018-09-11T14:45:19.540Z,11.30
2018-09-11T14:47:52.269Z,12.13
2018-09-11T14:50:23.945Z,12.07
2018-09-11T14:52:55.686Z,11.60
2018-09-11T14:55:26.846Z,10.67
2018-09-11T14:57:58.617Z,11.60
2018-09-11T15:00:30.041Z,11.47
2018-09-11T15:03:01.757Z,11.17
2018-09-11T15:05:33.216Z,9.93
2018-09-11T15:08:06.215Z,11.33
2018-09-11T15:10:37.597Z,11.73
2018-09-11T15:13:09.286Z,12.73
2018-09-11T15:15:40.568Z,11.53
2018-09-11T15:18:12.323Z,11.03
2018-09-11T15:20:43.745Z,12.50
2018-09-11T15:23:15.349Z,11.27
2018-09-11T15:25:46.365Z,9.90
2018-09-11T15:28:17.778Z,11.60
2018-09-11T15:30:49.066Z,13.57
2018-09-11T15:33:20.401Z,14.27
2018-09-11T15:35:51.520Z,13.10
2018-09-11T15:38:23.071Z,12.73
2018-09-11T15:40:54.213Z,12.03
2018-09-11T15:43:25.707Z,13.13
2018-09-11T15:45:56.777Z,13.23
2018-09-11T15:48:29.110Z,14.20
2018-09-11T15:51:00.199Z,11.93
2018-09-11T15:53:36.828Z,12.77
2018-09-11T15:56:08.088Z,11.00
2018-09-11T15:58:39.573Z,11.60
2018-09-11T16:01:10.559Z,15.50
2018-09-11T16:03:41.956Z,12.10
2018-09-11T16:06:13.030Z,11.13
2018-09-11T16:08:44.242Z,11.70
2018-09-11T16:11:15.850Z,11.77
2018-09-11T16:13:47.313Z,11.13
2018-09-11T16:16:18.238Z,13.67
2018-09-11T16:18:49.467Z,11.30
2018-09-11T16:21:20.424Z,11.63
2018-09-11T16:23:51.807Z,11.63
2018-09-11T16:26:22.921Z,10.57
2018-09-11T16:28:54.711Z,11.60
2018-09-11T16:31:25.885Z,10.67
2018-09-11T16:33:57.410Z,10.90
2018-09-11T16:36:28.376Z,13.30
2018-09-11T16:38:59.831Z,11.23
2018-09-11T16:41:30.879Z,13.40
2018-09-11T16:44:02.358Z,15.30
2018-09-11T16:46:33.629Z,12.80
2018-09-11T16:49:05.431Z,11.10
2018-09-11T16:51:36.556Z,11.00
2018-09-11T16:54:08.413Z,11.93
2018-09-11T16:56:39.413Z,12.27
2018-09-11T16:59:10.703Z,13.33
2018-09-11T17:01:41.775Z,11.60
2018-09-11T17:04:13.317Z,12.37
2018-09-11T17:06:44.265Z,12.13
2018-09-11T17:09:15.530Z,12.87
2018-09-11T17:12:25.782Z,10.43
